Time;durP1;ratioP1;P1;durP2;ratioP2;P2;SDS_P1;SDS_P2;PMS_P1;PMS_P2;Temp;Humidity;BMP_temperature;BMP_pressure;BME280_temperature;BME280_humidity;BME280_pressure;Samples;Min_cycle;Max_cycle;Signal;HPM_P1;HPM_P2
2023/07/25 00:01:14;;;;;;;4.53;2.80;;;;;;;;;;5024013;28;20487;-81
2023/07/25 00:03:40;;;;;;;5.37;2.70;;;;;;;;;;5045548;28;20220;-82
2023/07/25 00:06:07;;;;;;;5.10;2.80;;;;;;;;;;5009628;28;20652;-81
2023/07/25 00:08:33;;;;;;;5.43;2.87;;;;;;;;;;4996575;28;20227;-79
2023/07/25 00:11:00;;;;;;;4.43;2.60;;;;;;;;;;5008360;28;20278;-79
2023/07/25 00:13:29;;;;;;;5.70;2.57;;;;;;;;;;5036348;28;20204;-79
2023/07/25 00:15:55;;;;;;;5.77;2.80;;;;;;;;;;5027904;28;20216;-80
2023/07/25 00:18:24;;;;;;;5.87;3.20;;;;;;;;;;4985455;28;20398;-81
2023/07/25 00:20:50;;;;;;;4.93;2.78;;;;;;;;;;5022451;28;20223;-82
2023/07/25 00:23:28;;;;;;;3.85;2.42;;;;;;;;;;5027521;28;20700;-81
2023/07/25 00:25:54;;;;;;;6.57;3.00;;;;;;;;;;5024949;28;20756;-81
2023/07/25 00:28:22;;;;;;;3.88;2.53;;;;;;;;;;5027054;28;20754;-81
2023/07/25 00:30:48;;;;;;;4.10;2.80;;;;;;;;;;5008975;28;20216;-80
2023/07/25 00:33:15;;;;;;;3.37;2.80;;;;;;;;;;5032459;28;20220;-82
2023/07/25 00:35:52;;;;;;;7.53;3.03;;;;;;;;;;5023755;28;20245;-82
2023/07/25 00:38:18;;;;;;;6.38;2.78;;;;;;;;;;5039049;28;20283;-80
2023/07/25 00:40:50;;;;;;;4.13;3.10;;;;;;;;;;5017331;28;20271;-82
2023/07/25 00:43:15;;;;;;;4.63;3.00;;;;;;;;;;4999803;28;20246;-80
2023/07/25 00:45:44;;;;;;;5.20;3.07;;;;;;;;;;5007924;28;20227;-81
2023/07/25 00:48:10;;;;;;;4.03;2.60;;;;;;;;;;5000082;28;20232;-81
2023/07/25 00:50:40;;;;;;;5.30;3.33;;;;;;;;;;5011483;28;20311;-80
2023/07/25 00:53:09;;;;;;;4.10;2.73;;;;;;;;;;5001574;28;20220;-81
2023/07/25 00:55:35;;;;;;;5.73;2.97;;;;;;;;;;5053768;28;20777;-82
2023/07/25 00:58:02;;;;;;;6.40;3.17;;;;;;;;;;5007499;28;20216;-80
2023/07/25 01:00:29;;;;;;;4.47;2.77;;;;;;;;;;5008192;28;20316;-79
2023/07/25 01:02:55;;;;;;;3.77;3.10;;;;;;;;;;5031863;28;20223;-80
2023/07/25 01:05:23;;;;;;;4.72;3.17;;;;;;;;;;5037085;28;20235;-80
2023/07/25 01:07:51;;;;;;;6.27;2.90;;;;;;;;;;5010672;28;20236;-79
2023/07/25 01:10:17;;;;;;;7.20;3.23;;;;;;;;;;5051262;28;20226;-79
2023/07/25 01:12:42;;;;;;;4.10;3.00;;;;;;;;;;5040727;28;20219;-81
2023/07/25 01:15:11;;;;;;;5.53;3.17;;;;;;;;;;5007973;28;20219;-80
2023/07/25 01:17:36;;;;;;;5.30;3.00;;;;;;;;;;5042710;28;20262;-80
2023/07/25 01:20:02;;;;;;;5.27;2.93;;;;;;;;;;5040967;28;20228;-81
2023/07/25 01:22:27;;;;;;;5.73;3.20;;;;;;;;;;5018268;28;20219;-82
2023/07/25 01:24:56;;;;;;;5.57;3.50;;;;;;;;;;5043259;28;20225;-80
2023/07/25 01:27:24;;;;;;;6.20;3.57;;;;;;;;;;5025571;28;20238;-79
2023/07/25 01:29:54;;;;;;;3.77;3.40;;;;;;;;;;5059401;28;20215;-81
2023/07/25 01:32:22;;;;;;;6.60;3.23;;;;;;;;;;5029847;28;20777;-80
2023/07/25 01:34:48;;;;;;;8.33;3.50;;;;;;;;;;5031841;28;20286;-82
2023/07/25 01:37:13;;;;;;;8.17;3.47;;;;;;;;;;5034782;28;20215;-79
2023/07/25 01:39:43;;;;;;;9.50;4.00;;;;;;;;;;5026859;28;20277;-79
2023/07/25 01:42:11;;;;;;;8.00;3.63;;;;;;;;;;5040603;28;20230;-80
2023/07/25 01:44:39;;;;;;;5.60;3.47;;;;;;;;;;5055113;28;20216;-80
2023/07/25 01:47:05;;;;;;;5.63;3.40;;;;;;;;;;5051664;28;20576;-80
2023/07/25 01:49:30;;;;;;;5.67;3.90;;;;;;;;;;5026500;28;20236;-80
2023/07/25 01:51:59;;;;;;;7.40;3.47;;;;;;;;;;5041143;28;20258;-80
2023/07/25 01:54:28;;;;;;;5.53;4.10;;;;;;;;;;5024641;28;20250;-78
2023/07/25 01:56:53;;;;;;;5.83;4.23;;;;;;;;;;5025936;28;20227;-80
2023/07/25 01:59:21;;;;;;;5.00;4.20;;;;;;;;;;5017607;28;20215;-81
2023/07/25 02:01:47;;;;;;;6.83;4.33;;;;;;;;;;5036813;28;20227;-80
2023/07/25 02:04:21;;;;;;;9.43;4.53;;;;;;;;;;5032119;28;20756;-80
2023/07/25 02:06:49;;;;;;;8.00;4.43;;;;;;;;;;5050730;28;20223;-80
2023/07/25 02:09:20;;;;;;;6.33;4.67;;;;;;;;;;5041394;28;20220;-80
2023/07/25 02:11:45;;;;;;;7.03;4.43;;;;;;;;;;5018836;28;20213;-80
2023/07/25 02:14:20;;;;;;;8.40;4.87;;;;;;;;;;5027192;28;20224;-79
2023/07/25 02:16:46;;;;;;;7.63;4.87;;;;;;;;;;5040650;28;20330;-80
2023/07/25 02:19:14;;;;;;;8.00;5.20;;;;;;;;;;5026022;28;20717;-80
2023/07/25 02:21:42;;;;;;;8.30;5.20;;;;;;;;;;5036815;28;20228;-79
2023/07/25 02:24:09;;;;;;;8.70;5.30;;;;;;;;;;5038434;28;20223;-79
2023/07/25 02:26:35;;;;;;;8.07;5.60;;;;;;;;;;5036326;28;20234;-79
2023/07/25 02:29:03;;;;;;;9.87;5.27;;;;;;;;;;5026881;28;20223;-79
2023/07/25 02:31:28;;;;;;;6.17;4.67;;;;;;;;;;5056112;28;20283;-78
2023/07/25 02:33:56;;;;;;;7.67;5.37;;;;;;;;;;5035992;28;20223;-78
2023/07/25 02:36:21;;;;;;;8.37;4.60;;;;;;;;;;5048567;28;20228;-81
2023/07/25 02:38:47;;;;;;;14.70;4.70;;;;;;;;;;5030667;28;20219;-82
2023/07/25 02:41:15;;;;;;;8.40;5.13;;;;;;;;;;5040440;28;20212;-79
2023/07/25 02:43:40;;;;;;;6.53;5.27;;;;;;;;;;5040488;28;20241;-79
2023/07/25 02:46:10;;;;;;;8.97;4.43;;;;;;;;;;5049052;28;20216;-81
2023/07/25 02:48:36;;;;;;;7.27;4.70;;;;;;;;;;5055805;28;20235;-81
2023/07/25 02:51:04;;;;;;;6.37;4.90;;;;;;;;;;5023582;28;20223;-80
2023/07/25 02:53:32;;;;;;;8.03;4.67;;;;;;;;;;5058766;28;20215;-80
2023/07/25 02:56:00;;;;;;;6.03;4.50;;;;;;;;;;5030766;28;20220;-80
2023/07/25 02:58:27;;;;;;;11.53;5.17;;;;;;;;;;5014399;28;20219;-78
2023/07/25 03:00:55;;;;;;;9.20;5.30;;;;;;;;;;5048403;28;20212;-80
2023/07/25 03:03:21;;;;;;;5.87;5.33;;;;;;;;;;5028638;28;20223;-81
2023/07/25 03:05:46;;;;;;;8.87;6.10;;;;;;;;;;5018382;28;20232;-81
2023/07/25 03:08:17;;;;;;;7.90;5.67;;;;;;;;;;5025470;28;20219;-81
2023/07/25 03:10:42;;;;;;;13.63;6.00;;;;;;;;;;5051871;28;20223;-81
2023/07/25 03:13:08;;;;;;;11.67;6.17;;;;;;;;;;5039465;28;20230;-80
2023/07/25 03:15:34;;;;;;;6.13;5.10;;;;;;;;;;5051771;28;20227;-80
2023/07/25 03:18:02;;;;;;;7.90;5.90;;;;;;;;;;5054802;28;20224;-81
2023/07/25 03:20:32;;;;;;;6.80;5.63;;;;;;;;;;5022482;28;20208;-80
2023/07/25 03:22:58;;;;;;;10.10;6.20;;;;;;;;;;5000999;28;20215;-81
2023/07/25 03:25:28;;;;;;;8.03;6.37;;;;;;;;;;5021279;28;20224;-80
2023/07/25 03:27:58;;;;;;;8.70;6.50;;;;;;;;;;5043458;28;20708;-80
2023/07/25 03:30:28;;;;;;;11.17;6.73;;;;;;;;;;5049523;28;20220;-78
2023/07/25 03:32:53;;;;;;;13.73;6.67;;;;;;;;;;5040863;28;20228;-81
2023/07/25 03:35:19;;;;;;;7.67;6.63;;;;;;;;;;5041444;28;20564;-80
2023/07/25 03:37:47;;;;;;;9.60;6.63;;;;;;;;;;5034690;28;20817;-80
2023/07/25 03:40:13;;;;;;;8.27;6.53;;;;;;;;;;5034651;28;20231;-81
2023/07/25 03:42:41;;;;;;;8.63;6.30;;;;;;;;;;5040567;28;20235;-80
2023/07/25 03:45:07;;;;;;;7.80;6.30;;;;;;;;;;5049840;28;20216;-81
2023/07/25 03:47:32;;;;;;;10.03;7.13;;;;;;;;;;5051091;28;20235;-81
2023/07/25 03:49:58;;;;;;;6.50;5.87;;;;;;;;;;5041186;28;20219;-81
2023/07/25 03:52:24;;;;;;;8.63;5.93;;;;;;;;;;5034681;28;20223;-80
2023/07/25 03:54:49;;;;;;;6.77;5.70;;;;;;;;;;5048773;28;20228;-81
2023/07/25 03:57:17;;;;;;;10.57;6.17;;;;;;;;;;5041919;28;20290;-82
2023/07/25 03:59:43;;;;;;;7.23;6.10;;;;;;;;;;5041587;28;20302;-81
2023/07/25 04:05:56;;;;;;;8.97;6.77;;;;;;;;;;5052629;28;20242;-81
2023/07/25 04:08:22;;;;;;;6.97;6.37;;;;;;;;;;5041310;28;20243;-79
2023/07/25 04:10:47;;;;;;;11.17;6.23;;;;;;;;;;5040260;28;20235;-81
2023/07/25 04:13:13;;;;;;;7.77;6.67;;;;;;;;;;5021711;28;20207;-79
2023/07/25 04:15:43;;;;;;;8.90;7.23;;;;;;;;;;5050943;28;20259;-79
2023/07/25 04:18:11;;;;;;;7.70;6.90;;;;;;;;;;5019260;28;20230;-80
2023/07/25 04:20:41;;;;;;;12.83;6.90;;;;;;;;;;5035534;28;20215;-81
2023/07/25 04:23:10;;;;;;;9.93;6.70;;;;;;;;;;5036410;28;20231;-80
2023/07/25 04:25:36;;;;;;;8.67;7.13;;;;;;;;;;5046958;28;20224;-81
2023/07/25 04:28:01;;;;;;;8.63;7.00;;;;;;;;;;5035786;28;20223;-79
2023/07/25 04:30:27;;;;;;;10.43;6.60;;;;;;;;;;5040545;28;20249;-80
2023/07/25 04:32:52;;;;;;;8.40;7.13;;;;;;;;;;5040732;28;20226;-79
2023/07/25 04:35:18;;;;;;;7.97;6.87;;;;;;;;;;5037412;28;20551;-79
2023/07/25 04:37:51;;;;;;;7.40;6.33;;;;;;;;;;5052191;28;20234;-80
2023/07/25 04:40:17;;;;;;;11.60;6.60;;;;;;;;;;5051937;28;20246;-81
2023/07/25 04:42:44;;;;;;;7.47;6.77;;;;;;;;;;5042729;28;20208;-78
2023/07/25 04:45:10;;;;;;;10.30;7.77;;;;;;;;;;5015168;28;20313;-80
2023/07/25 04:47:36;;;;;;;9.70;7.03;;;;;;;;;;5033055;28;20300;-81
2023/07/25 04:50:02;;;;;;;12.37;7.37;;;;;;;;;;5018420;28;20228;-79
2023/07/25 04:52:28;;;;;;;8.67;7.30;;;;;;;;;;5028201;28;20223;-80
2023/07/25 04:54:57;;;;;;;11.30;7.23;;;;;;;;;;5027712;28;20215;-79
2023/07/25 04:57:28;;;;;;;13.57;7.40;;;;;;;;;;5039550;28;20232;-81
2023/07/25 04:59:55;;;;;;;8.93;7.70;;;;;;;;;;5025946;28;20223;-81
2023/07/25 05:02:21;;;;;;;12.07;8.17;;;;;;;;;;5043400;28;20223;-81
2023/07/25 05:04:49;;;;;;;8.93;7.53;;;;;;;;;;5036777;28;20222;-80
2023/07/25 05:07:17;;;;;;;10.93;7.43;;;;;;;;;;5031287;28;20216;-80
2023/07/25 05:09:47;;;;;;;10.30;7.60;;;;;;;;;;5030316;28;20261;-79
2023/07/25 05:12:13;;;;;;;9.73;7.67;;;;;;;;;;5008706;28;20228;-80
2023/07/25 05:14:38;;;;;;;10.47;7.60;;;;;;;;;;4998461;28;20226;-83
2023/07/25 05:17:04;;;;;;;8.57;7.23;;;;;;;;;;5055459;28;20239;-82
2023/07/25 05:19:32;;;;;;;12.63;8.20;;;;;;;;;;5032620;28;20211;-82
2023/07/25 05:21:57;;;;;;;9.03;7.77;;;;;;;;;;5014507;28;20278;-82
2023/07/25 05:24:23;;;;;;;9.53;7.67;;;;;;;;;;5020069;28;20242;-81
2023/07/25 05:26:49;;;;;;;13.37;7.43;;;;;;;;;;5021661;28;20227;-83
2023/07/25 05:29:17;;;;;;;10.67;6.80;;;;;;;;;;5026074;28;20227;-81
2023/07/25 05:31:42;;;;;;;19.13;7.70;;;;;;;;;;5031346;28;20239;-81
2023/07/25 05:34:12;;;;;;;8.97;6.47;;;;;;;;;;5013447;28;20243;-82
2023/07/25 05:36:38;;;;;;;12.23;6.83;;;;;;;;;;5030696;28;20780;-82
2023/07/25 05:39:03;;;;;;;9.60;6.27;;;;;;;;;;4997947;28;20207;-80
2023/07/25 05:41:29;;;;;;;7.88;5.90;;;;;;;;;;5045919;28;20272;-81
2023/07/25 05:43:54;;;;;;;7.90;5.13;;;;;;;;;;5002088;28;20215;-82
2023/07/25 05:46:22;;;;;;;11.70;5.27;;;;;;;;;;5015524;28;20581;-81
2023/07/25 05:48:47;;;;;;;6.85;4.80;;;;;;;;;;5033073;28;20293;-81
2023/07/25 05:51:13;;;;;;;6.67;4.73;;;;;;;;;;5023537;28;20231;-80
2023/07/25 05:53:41;;;;;;;8.37;4.50;;;;;;;;;;5034226;28;20218;-82
2023/07/25 05:56:09;;;;;;;8.73;4.60;;;;;;;;;;5008862;28;20215;-82
2023/07/25 05:58:37;;;;;;;9.07;4.63;;;;;;;;;;5012872;28;20639;-81
2023/07/25 06:01:05;;;;;;;7.03;4.00;;;;;;;;;;5046698;28;20278;-80
2023/07/25 06:03:31;;;;;;;12.33;4.50;;;;;;;;;;5016472;28;20211;-82
2023/07/25 06:05:56;;;;;;;5.77;3.80;;;;;;;;;;5017405;28;20234;-82
2023/07/25 06:08:24;;;;;;;7.20;3.90;;;;;;;;;;5031282;28;20232;-82
2023/07/25 06:10:52;;;;;;;7.07;4.03;;;;;;;;;;5024007;28;20256;-81
2023/07/25 06:13:17;;;;;;;8.07;3.73;;;;;;;;;;5026460;28;20273;-81
2023/07/25 06:15:43;;;;;;;5.32;3.63;;;;;;;;;;5019062;28;20223;-81
2023/07/25 06:18:08;;;;;;;5.43;3.83;;;;;;;;;;5016973;28;20271;-81
2023/07/25 06:20:34;;;;;;;13.68;3.35;;;;;;;;;;5018947;28;20223;-79
2023/07/25 06:23:02;;;;;;;7.28;3.25;;;;;;;;;;5046347;28;20223;-80
2023/07/25 06:25:30;;;;;;;10.20;3.30;;;;;;;;;;5017162;28;20693;-80
2023/07/25 06:27:55;;;;;;;7.93;3.40;;;;;;;;;;5013669;28;20219;-77
2023/07/25 06:30:21;;;;;;;4.38;2.40;;;;;;;;;;5023209;28;20283;-77
2023/07/25 06:32:46;;;;;;;7.65;2.90;;;;;;;;;;5017839;28;20227;-78
2023/07/25 06:35:12;;;;;;;4.57;3.00;;;;;;;;;;5011168;28;20227;-77
2023/07/25 06:37:37;;;;;;;7.45;2.92;;;;;;;;;;5034599;28;20216;-78
2023/07/25 06:40:03;;;;;;;5.25;2.92;;;;;;;;;;5024607;28;20230;-78
2023/07/25 06:42:29;;;;;;;7.75;3.10;;;;;;;;;;5031389;28;20326;-79
2023/07/25 06:44:56;;;;;;;7.55;2.95;;;;;;;;;;5000488;28;20689;-79
2023/07/25 06:47:24;;;;;;;6.07;2.55;;;;;;;;;;5031861;28;20249;-79
2023/07/25 06:49:50;;;;;;;4.93;2.58;;;;;;;;;;5032885;28;20227;-80
2023/07/25 06:52:15;;;;;;;3.80;2.20;;;;;;;;;;5019576;28;20215;-80
2023/07/25 06:54:42;;;;;;;4.40;2.20;;;;;;;;;;5025593;28;20231;-81
2023/07/25 06:57:08;;;;;;;8.63;2.80;;;;;;;;;;5026458;28;20752;-80
2023/07/25 06:59:36;;;;;;;6.65;2.30;;;;;;;;;;5018259;28;20243;-81
2023/07/25 07:02:01;;;;;;;4.93;2.50;;;;;;;;;;5015399;28;20231;-79
2023/07/25 07:04:27;;;;;;;5.85;2.35;;;;;;;;;;5016785;28;20239;-77
2023/07/25 07:06:55;;;;;;;6.13;2.72;;;;;;;;;;5009999;28;20570;-80
2023/07/25 07:09:22;;;;;;;6.72;2.60;;;;;;;;;;5019004;28;20618;-79
2023/07/25 07:11:48;;;;;;;5.15;2.50;;;;;;;;;;5046999;28;20252;-77
2023/07/25 07:14:16;;;;;;;7.63;2.50;;;;;;;;;;5039427;28;21189;-77
2023/07/25 07:16:41;;;;;;;5.72;2.35;;;;;;;;;;5014539;28;20325;-78
2023/07/25 07:19:07;;;;;;;8.25;2.88;;;;;;;;;;5031355;28;20231;-78
2023/07/25 07:21:35;;;;;;;9.05;2.83;;;;;;;;;;5021668;28;20227;-78
2023/07/25 07:24:00;;;;;;;5.28;2.15;;;;;;;;;;5009714;28;20227;-78
2023/07/25 07:26:26;;;;;;;12.55;2.63;;;;;;;;;;5004325;28;20223;-76
2023/07/25 07:28:51;;;;;;;6.07;2.55;;;;;;;;;;5043898;28;20224;-77
2023/07/25 07:31:23;;;;;;;5.60;2.55;;;;;;;;;;5038079;28;20930;-79
2023/07/25 07:33:48;;;;;;;7.30;2.60;;;;;;;;;;5028932;28;20280;-79
2023/07/25 07:36:14;;;;;;;4.20;2.28;;;;;;;;;;5010865;28;20215;-78
2023/07/25 07:38:42;;;;;;;7.55;2.50;;;;;;;;;;5035103;28;20220;-78
2023/07/25 07:41:07;;;;;;;3.92;2.10;;;;;;;;;;5022436;28;20230;-78
2023/07/25 07:43:35;;;;;;;5.00;2.38;;;;;;;;;;5030456;28;20219;-78
2023/07/25 07:46:01;;;;;;;10.48;2.38;;;;;;;;;;5016429;28;20231;-76
2023/07/25 07:48:26;;;;;;;4.03;1.85;;;;;;;;;;5019000;28;20228;-78
2023/07/25 07:50:54;;;;;;;2.85;1.92;;;;;;;;;;5003467;28;20230;-78
2023/07/25 07:53:20;;;;;;;3.20;1.70;;;;;;;;;;5018249;28;20219;-78
2023/07/25 07:55:45;;;;;;;3.33;1.55;;;;;;;;;;5006925;28;20211;-78
2023/07/25 07:58:13;;;;;;;4.25;2.10;;;;;;;;;;5033636;28;20212;-79
2023/07/25 08:00:38;;;;;;;1.98;1.63;;;;;;;;;;5014238;28;20294;-79
2023/07/25 08:03:04;;;;;;;3.53;2.10;;;;;;;;;;5023139;28;20616;-78
2023/07/25 08:05:32;;;;;;;12.52;7.28;;;;;;;;;;5037399;28;20216;-78
2023/07/25 08:07:58;;;;;;;3.85;1.67;;;;;;;;;;5027987;28;20291;-77
2023/07/25 08:10:25;;;;;;;5.00;2.15;;;;;;;;;;5012914;28;20257;-80
2023/07/25 08:12:51;;;;;;;4.65;2.00;;;;;;;;;;5021397;28;20229;-79
2023/07/25 08:15:16;;;;;;;2.97;1.70;;;;;;;;;;5022426;28;20676;-79
2023/07/25 08:17:42;;;;;;;3.65;1.85;;;;;;;;;;5021938;28;20224;-78
2023/07/25 08:20:07;;;;;;;3.10;1.63;;;;;;;;;;5043544;28;20231;-78
2023/07/25 08:22:33;;;;;;;4.43;1.80;;;;;;;;;;5042507;28;20228;-78
2023/07/25 08:25:01;;;;;;;7.38;1.95;;;;;;;;;;5019328;28;20222;-80
2023/07/25 08:27:26;;;;;;;5.60;2.30;;;;;;;;;;5015202;28;20248;-77
2023/07/25 08:29:52;;;;;;;2.70;1.80;;;;;;;;;;5032427;28;20231;-78
2023/07/25 08:32:17;;;;;;;6.18;2.03;;;;;;;;;;4991262;28;20219;-77
2023/07/25 08:34:43;;;;;;;5.45;1.80;;;;;;;;;;5017595;28;20216;-80
2023/07/25 08:37:09;;;;;;;4.03;1.90;;;;;;;;;;5033328;28;20289;-76
2023/07/25 08:39:34;;;;;;;3.25;1.77;;;;;;;;;;5023400;28;20310;-77
2023/07/25 08:42:04;;;;;;;5.60;1.77;;;;;;;;;;5036037;28;20227;-78
2023/07/25 08:44:30;;;;;;;4.85;2.08;;;;;;;;;;5032565;28;20231;-80
2023/07/25 08:46:56;;;;;;;4.90;1.80;;;;;;;;;;4975805;28;20246;-78
2023/07/25 08:49:23;;;;;;;6.28;1.85;;;;;;;;;;5030810;28;20219;-77
2023/07/25 08:51:52;;;;;;;2.88;1.63;;;;;;;;;;5032892;28;20215;-79
2023/07/25 08:54:36;;;;;;;4.22;1.60;;;;;;;;;;5034859;28;20219;-80
2023/07/25 08:57:03;;;;;;;8.88;1.90;;;;;;;;;;5028746;28;20223;-79
2023/07/25 08:59:29;;;;;;;6.43;1.95;;;;;;;;;;5038489;28;20223;-81
2023/07/25 09:01:55;;;;;;;3.42;1.90;;;;;;;;;;5044756;28;20223;-82
2023/07/25 09:04:26;;;;;;;4.03;1.92;;;;;;;;;;5002114;28;20220;-82
2023/07/25 09:06:52;;;;;;;4.25;1.48;;;;;;;;;;5035394;28;20215;-80
2023/07/25 09:09:18;;;;;;;6.95;2.08;;;;;;;;;;5013388;28;20216;-79
2023/07/25 09:11:46;;;;;;;3.85;1.75;;;;;;;;;;5018593;28;20295;-78
2023/07/25 09:14:11;;;;;;;3.65;1.83;;;;;;;;;;5015735;28;20231;-79
2023/07/25 09:16:37;;;;;;;4.18;1.73;;;;;;;;;;5025283;28;20299;-82
2023/07/25 09:19:05;;;;;;;2.85;1.77;;;;;;;;;;5020991;28;20214;-81
2023/07/25 09:21:33;;;;;;;5.85;1.92;;;;;;;;;;5008451;28;20230;-81
2023/07/25 09:24:01;;;;;;;4.78;1.90;;;;;;;;;;4999228;28;20261;-80
2023/07/25 09:26:28;;;;;;;5.55;2.00;;;;;;;;;;5025780;28;20231;-79
2023/07/25 09:28:57;;;;;;;7.15;1.92;;;;;;;;;;5010380;28;20215;-79
2023/07/25 09:31:26;;;;;;;3.63;1.60;;;;;;;;;;5017090;28;20581;-79
2023/07/25 09:33:53;;;;;;;4.85;1.75;;;;;;;;;;5030588;28;20223;-80
2023/07/25 09:36:19;;;;;;;5.45;2.03;;;;;;;;;;5030005;28;20223;-80
2023/07/25 09:38:53;;;;;;;3.17;2.00;;;;;;;;;;5019177;28;20219;-81
2023/07/25 09:41:26;;;;;;;3.45;1.92;;;;;;;;;;5026476;28;20224;-80
2023/07/25 09:43:52;;;;;;;3.53;1.80;;;;;;;;;;5028794;28;20231;-81
2023/07/25 09:46:20;;;;;;;4.10;1.75;;;;;;;;;;5017201;28;20267;-80
2023/07/25 09:48:50;;;;;;;3.03;1.60;;;;;;;;;;5011558;28;20757;-81
2023/07/25 09:51:16;;;;;;;3.58;1.70;;;;;;;;;;5005299;28;20277;-80
2023/07/25 09:53:45;;;;;;;3.10;1.30;;;;;;;;;;5008503;28;20269;-79
2023/07/25 09:56:16;;;;;;;3.80;1.35;;;;;;;;;;5028066;28;20243;-79
2023/07/25 09:58:44;;;;;;;4.75;1.23;;;;;;;;;;5012997;28;20211;-80
2023/07/25 10:01:10;;;;;;;2.28;1.27;;;;;;;;;;5007805;28;20238;-79
2023/07/25 10:03:38;;;;;;;4.28;1.80;;;;;;;;;;5035497;28;20228;-80
2023/07/25 10:06:06;;;;;;;1.98;1.27;;;;;;;;;;5018757;28;20219;-79
2023/07/25 10:08:32;;;;;;;3.08;1.58;;;;;;;;;;5036119;28;20234;-79
2023/07/25 10:10:57;;;;;;;4.25;1.35;;;;;;;;;;5030942;28;20588;-78
2023/07/25 10:13:25;;;;;;;3.47;1.42;;;;;;;;;;5021043;28;20231;-79
2023/07/25 10:15:51;;;;;;;4.78;1.20;;;;;;;;;;5018507;28;20243;-79
2023/07/25 10:18:24;;;;;;;2.58;1.30;;;;;;;;;;5042599;28;20598;-80
2023/07/25 10:20:50;;;;;;;3.00;1.48;;;;;;;;;;5011450;28;20330;-79
2023/07/25 10:23:16;;;;;;;4.70;1.60;;;;;;;;;;5027896;28;20279;-78
2023/07/25 10:25:41;;;;;;;2.38;1.25;;;;;;;;;;5010531;28;20265;-81
2023/07/25 10:28:07;;;;;;;3.80;1.27;;;;;;;;;;5028186;28;20231;-79
2023/07/25 10:30:43;;;;;;;2.35;1.20;;;;;;;;;;5032725;28;20227;-79
2023/07/25 10:33:14;;;;;;;2.03;1.13;;;;;;;;;;5032659;28;20215;-79
2023/07/25 10:35:50;;;;;;;3.03;1.30;;;;;;;;;;5030190;28;20234;-79
2023/07/25 10:38:22;;;;;;;1.23;1.13;;;;;;;;;;5013192;28;20265;-81
2023/07/25 10:40:51;;;;;;;2.65;1.30;;;;;;;;;;5027112;28;20684;-79
2023/07/25 10:43:17;;;;;;;4.47;1.42;;;;;;;;;;5010423;28;20216;-79
2023/07/25 10:45:47;;;;;;;3.70;1.40;;;;;;;;;;5017141;28;20233;-77
2023/07/25 10:48:30;;;;;;;2.33;1.30;;;;;;;;;;5029888;28;20255;-78
2023/07/25 10:50:55;;;;;;;3.47;1.73;;;;;;;;;;5030881;28;20220;-80
2023/07/25 10:53:26;;;;;;;1.60;0.90;;;;;;;;;;5023251;28;20223;-81
2023/07/25 10:56:03;;;;;;;1.60;1.00;;;;;;;;;;5032001;28;20223;-79
2023/07/25 10:58:30;;;;;;;1.17;0.80;;;;;;;;;;5046588;28;20231;-78
2023/07/25 11:00:55;;;;;;;3.97;1.30;;;;;;;;;;5011262;28;20219;-80
2023/07/25 11:03:28;;;;;;;3.03;1.25;;;;;;;;;;5015996;28;20239;-80
2023/07/25 11:06:08;;;;;;;2.15;1.08;;;;;;;;;;5034161;28;20230;-78
2023/07/25 11:08:36;;;;;;;1.40;1.10;;;;;;;;;;5043385;28;20783;-79
2023/07/25 11:11:04;;;;;;;3.50;1.33;;;;;;;;;;5030245;28;20751;-79
2023/07/25 11:13:30;;;;;;;2.05;0.90;;;;;;;;;;5028604;28;20729;-79
2023/07/25 11:15:55;;;;;;;2.33;0.90;;;;;;;;;;4994284;28;20226;-79
2023/07/25 11:18:24;;;;;;;1.00;0.90;;;;;;;;;;5037810;28;20211;-81
2023/07/25 11:21:08;;;;;;;3.42;1.00;;;;;;;;;;5031846;28;20227;-79
2023/07/25 11:23:36;;;;;;;1.50;0.90;;;;;;;;;;5009545;28;20227;-80
2023/07/25 11:26:08;;;;;;;1.85;1.10;;;;;;;;;;4998096;28;20212;-80
2023/07/25 11:28:37;;;;;;;3.28;1.63;;;;;;;;;;5013301;28;20256;-78
2023/07/25 11:31:02;;;;;;;3.22;0.90;;;;;;;;;;5035270;28;20226;-79
2023/07/25 11:33:39;;;;;;;1.10;0.80;;;;;;;;;;5024635;28;20242;-78
2023/07/25 11:36:08;;;;;;;4.43;1.20;;;;;;;;;;5024239;28;20267;-79
2023/07/25 11:38:36;;;;;;;1.20;0.90;;;;;;;;;;5029814;28;20225;-78
2023/07/25 11:41:02;;;;;;;2.20;0.90;;;;;;;;;;5043700;28;20220;-80
2023/07/25 11:43:30;;;;;;;1.48;0.98;;;;;;;;;;5034584;28;20223;-79
2023/07/25 11:45:55;;;;;;;1.02;0.80;;;;;;;;;;4996193;28;20219;-79
2023/07/25 11:48:21;;;;;;;1.50;0.80;;;;;;;;;;5029835;28;20224;-80
2023/07/25 11:50:48;;;;;;;1.98;0.90;;;;;;;;;;5019973;28;20225;-80
2023/07/25 11:53:20;;;;;;;2.60;1.05;;;;;;;;;;5018808;28;20212;-81
2023/07/25 11:55:50;;;;;;;3.60;0.98;;;;;;;;;;4995838;28;20681;-82
2023/07/25 11:58:19;;;;;;;1.60;0.70;;;;;;;;;;5030043;28;20219;-80
2023/07/25 12:00:51;;;;;;;2.72;0.80;;;;;;;;;;5003016;28;20293;-78
2023/07/25 12:03:18;;;;;;;1.50;0.82;;;;;;;;;;5027408;28;20258;-80
2023/07/25 12:05:56;;;;;;;2.95;0.90;;;;;;;;;;5010612;28;20226;-79
2023/07/25 12:08:37;;;;;;;3.83;0.88;;;;;;;;;;5036751;28;20248;-81
2023/07/25 12:11:08;;;;;;;2.13;1.00;;;;;;;;;;5042169;28;20227;-78
2023/07/25 12:13:50;;;;;;;2.95;0.98;;;;;;;;;;5015304;28;20387;-78
2023/07/25 12:16:32;;;;;;;1.58;1.00;;;;;;;;;;5027246;28;20239;-78
2023/07/25 12:19:07;;;;;;;4.35;1.20;;;;;;;;;;5035359;28;20227;-79
2023/07/25 12:21:33;;;;;;;2.38;1.20;;;;;;;;;;5001573;28;20299;-78
2023/07/25 12:24:05;;;;;;;3.60;1.10;;;;;;;;;;5029050;28;20587;-79
2023/07/25 12:26:48;;;;;;;3.22;1.10;;;;;;;;;;5017004;28;20224;-78
2023/07/25 12:29:14;;;;;;;2.25;1.02;;;;;;;;;;5017661;28;20238;-78
2023/07/25 12:31:40;;;;;;;3.67;1.00;;;;;;;;;;5031007;28;20227;-81
2023/07/25 12:34:11;;;;;;;1.45;0.90;;;;;;;;;;5005208;28;20221;-80
2023/07/25 12:36:37;;;;;;;1.63;1.00;;;;;;;;;;5026647;28;20695;-80
2023/07/25 12:39:07;;;;;;;0.73;0.63;;;;;;;;;;5032021;28;20211;-79
2023/07/25 12:41:33;;;;;;;1.00;0.77;;;;;;;;;;5044613;28;20235;-81
2023/07/25 12:44:00;;;;;;;0.68;0.60;;;;;;;;;;5032151;28;20223;-81
2023/07/25 12:46:26;;;;;;;1.30;0.85;;;;;;;;;;5013380;28;20227;-78
2023/07/25 12:48:51;;;;;;;1.55;0.90;;;;;;;;;;5016952;28;20446;-81
2023/07/25 12:51:17;;;;;;;1.80;0.90;;;;;;;;;;5016371;28;20227;-78
2023/07/25 12:53:42;;;;;;;1.35;0.85;;;;;;;;;;5042571;28;20227;-79
2023/07/25 12:56:10;;;;;;;1.52;0.80;;;;;;;;;;5030061;28;20219;-78
2023/07/25 12:58:38;;;;;;;3.35;0.82;;;;;;;;;;5011580;28;20216;-79
2023/07/25 13:01:06;;;;;;;4.18;0.90;;;;;;;;;;5008783;28;20211;-82
2023/07/25 13:03:42;;;;;;;1.20;0.80;;;;;;;;;;5016839;28;20246;-79
2023/07/25 13:06:08;;;;;;;1.00;0.80;;;;;;;;;;5028757;28;20227;-81
2023/07/25 13:08:34;;;;;;;2.45;1.00;;;;;;;;;;5015242;28;20240;-80
2023/07/25 13:10:59;;;;;;;3.05;1.10;;;;;;;;;;5012953;28;20215;-81
2023/07/25 13:13:25;;;;;;;4.15;0.93;;;;;;;;;;5031394;28;21189;-81
2023/07/25 13:15:51;;;;;;;1.92;1.33;;;;;;;;;;5041153;28;20278;-82
2023/07/25 13:18:16;;;;;;;1.90;0.98;;;;;;;;;;5026765;28;20279;-80
2023/07/25 13:20:42;;;;;;;5.32;1.20;;;;;;;;;;5011854;28;20223;-80
2023/07/25 13:23:13;;;;;;;3.00;1.10;;;;;;;;;;5017736;28;20220;-80
2023/07/25 13:25:43;;;;;;;3.10;1.00;;;;;;;;;;5028794;28;20721;-79
2023/07/25 13:28:11;;;;;;;4.05;1.33;;;;;;;;;;5022324;28;20217;-82
2023/07/25 13:30:37;;;;;;;3.45;1.30;;;;;;;;;;5007790;28;20223;-79
2023/07/25 13:33:05;;;;;;;8.25;1.52;;;;;;;;;;4992033;28;20223;-81
2023/07/25 13:35:34;;;;;;;3.17;1.33;;;;;;;;;;5033538;28;20237;-79
2023/07/25 13:37:59;;;;;;;4.20;1.25;;;;;;;;;;5016575;28;20204;-79
2023/07/25 13:40:28;;;;;;;2.70;1.40;;;;;;;;;;5016047;28;20592;-81
2023/07/25 13:42:58;;;;;;;3.38;1.30;;;;;;;;;;5034202;28;20242;-79
2023/07/25 13:45:24;;;;;;;4.10;1.27;;;;;;;;;;5031471;28;20285;-81
2023/07/25 13:47:50;;;;;;;3.55;1.05;;;;;;;;;;5032300;28;20223;-80
2023/07/25 13:50:15;;;;;;;2.17;1.02;;;;;;;;;;5039375;28;20722;-78
2023/07/25 13:52:41;;;;;;;2.13;1.23;;;;;;;;;;5015951;28;20220;-79
2023/07/25 13:55:09;;;;;;;4.25;1.40;;;;;;;;;;5014055;28;20216;-80
2023/07/25 13:57:34;;;;;;;3.17;1.05;;;;;;;;;;5032398;28;20216;-79
2023/07/25 14:00:00;;;;;;;2.97;1.30;;;;;;;;;;5043035;28;20319;-80
2023/07/25 14:02:25;;;;;;;2.67;1.23;;;;;;;;;;5015028;28;20223;-79
2023/07/25 14:04:51;;;;;;;3.42;1.30;;;;;;;;;;5028251;28;20224;-79
2023/07/25 14:07:17;;;;;;;2.67;1.38;;;;;;;;;;4998549;28;20220;-81
2023/07/25 14:09:43;;;;;;;5.65;1.05;;;;;;;;;;5013654;28;20215;-80
2023/07/25 14:12:09;;;;;;;2.85;1.02;;;;;;;;;;5033991;28;20234;-81
2023/07/25 14:14:34;;;;;;;2.33;1.15;;;;;;;;;;5024907;28;20223;-80
2023/07/25 14:17:02;;;;;;;6.05;1.20;;;;;;;;;;5001972;28;20211;-79
2023/07/25 14:19:28;;;;;;;3.33;1.35;;;;;;;;;;5024904;28;20215;-81
2023/07/25 14:21:53;;;;;;;1.90;1.00;;;;;;;;;;5026123;28;20232;-81
2023/07/25 14:24:21;;;;;;;2.63;1.08;;;;;;;;;;5029560;28;20215;-80
2023/07/25 14:26:46;;;;;;;3.90;1.15;;;;;;;;;;5047609;28;20247;-77
2023/07/25 14:29:12;;;;;;;4.95;1.13;;;;;;;;;;4991642;28;20228;-81
2023/07/25 14:31:40;;;;;;;4.90;1.23;;;;;;;;;;5040029;28;20231;-78
2023/07/25 14:34:05;;;;;;;2.83;1.30;;;;;;;;;;5014985;28;20223;-76
2023/07/25 14:36:33;;;;;;;2.28;1.10;;;;;;;;;;5049168;28;20220;-79
2023/07/25 14:39:01;;;;;;;5.72;1.30;;;;;;;;;;5020797;28;20644;-78
2023/07/25 14:41:29;;;;;;;2.47;1.02;;;;;;;;;;5006977;28;20227;-77
2023/07/25 14:43:56;;;;;;;6.07;1.10;;;;;;;;;;5023833;28;20215;-79
2023/07/25 14:46:22;;;;;;;3.58;1.05;;;;;;;;;;5039505;28;20227;-79